Locustville, VA (23404)

12:46 AM EST am 06. Dezember 2016 (GMT -0500)
Accomack County | | Change Station

Höhe 46 ft 37.65 °N, 75.76 °W | Updated 11 minutes ago

Clear
Heiter
44 °F
gefühlte 40 °F
N
7
Wind Wechselnd Wind aus Nord-Nordost

Heute
Max. -- | schwach -- °F
--% Regenrisiko
Gestern
Max. -- | schwach -- °F
Precip. -- inch
Druck 30.09 inch
Sichtweite 10.0 Meilen
Wolken Heiter
Windchill 40 °F
Taupunkt 40 °F
Feuchtigkeit 86%
Regen 0.00 inch
Schneehöhe Nicht verfügbar..
7:03 AM 4:43 PM
Erstes Viertel, 38% visible
METAR KMFV 060535Z AUTO 03006KT 10SM CLR 07/04 A3009 RMK AO2 T00650043
Druck 30.09 inch
Sichtweite 10.0 Meilen
Wolken Heiter
Windchill 40 °F
Taupunkt 40 °F
Feuchtigkeit 86%
Regen 0.00 inch
Schneehöhe Nicht verfügbar..
7:03 AM 4:43 PM
Erstes Viertel, 38% visible
METAR KMFV 060535Z AUTO 03006KT 10SM CLR 07/04 A3009 RMK AO2 T00650043

10-Day Weather Forecast

Almanac

Astronomie

Dec. 06, 2016 Aufgang Untergang
Genaue Zeit
Bürgerliche Dämmerung
Nautische Dämmerung
Astronomische Dämmerung
Mond
Länge des sichtbaren Lichts
Tageslänge
Tomorrow will be .
, % of the Moon is Illuminated

Heutige Rekorde

State Highs State Lows

Community

WunderPhotos

Upload Photos

1,955,931 Fotos hochgeladen!

WunderBlog® & News

Nearby

Luftqualität

  Luftqualität LQ Index Schadstoff
Not available.

Schneehöhe

Station Depth Höhe

Erdbebenaktivität

Stadt Distance Mag. Time & Date
Minimum magnitude displayed is 2.5.

küstennahe Wassertemperaturen

Ort Temperatur

Stations

Wetterstationen in der Umgebung

Stationsstandort Temp. Windchill Taupunkt Feuchtigkeit Wind Precip. Höhe Aktualisiert Art
                   

Watches & Warnings

There are currently no watches in effect.